Time;durP1;ratioP1;P1;durP2;ratioP2;P2;SDS_P1;SDS_P2;PMS_P1;PMS_P2;Temp;Humidity;BMP_temperature;BMP_pressure;BME280_temperature;BME280_humidity;BME280_pressure;Samples;Min_cycle;Max_cycle;Signal;HPM_P1;HPM_P2
2023/04/13 00:00:23;;;;;;;9.80;3.90;;;;;;;10.29;100.00;99082.53;1696072;83;21098;-57
2023/04/13 00:02:55;;;;;;;5.28;3.70;;;;;;;10.26;100.00;99085.73;1696129;83;21117;-57
2023/04/13 00:05:25;;;;;;;7.28;3.87;;;;;;;10.28;100.00;99102.77;1696202;83;21054;-59
2023/04/13 00:07:56;;;;;;;9.88;3.83;;;;;;;10.28;100.00;99108.77;1696350;83;21075;-58
2023/04/13 00:10:26;;;;;;;9.48;3.92;;;;;;;10.27;100.00;99109.30;1696253;84;21059;-58
2023/04/13 00:12:57;;;;;;;8.38;4.10;;;;;;;10.28;100.00;99110.97;1696414;84;21042;-58
2023/04/13 00:15:26;;;;;;;7.85;3.83;;;;;;;10.29;100.00;99107.70;1709025;83;21092;-58
2023/04/13 00:17:57;;;;;;;8.40;4.00;;;;;;;10.29;100.00;99118.13;1730142;82;21457;-57
2023/04/13 00:20:27;;;;;;;8.53;3.80;;;;;;;10.27;100.00;99114.78;1717356;83;21563;-58
2023/04/13 00:22:56;;;;;;;7.58;3.87;;;;;;;10.27;100.00;99117.52;1730401;83;21662;-57
2023/04/13 00:25:26;;;;;;;7.00;4.08;;;;;;;10.29;100.00;99118.13;1717302;83;21030;-58
2023/04/13 00:27:55;;;;;;;6.35;3.85;;;;;;;10.29;100.00;99115.38;1730350;83;20978;-57
2023/04/13 00:30:25;;;;;;;7.55;3.70;;;;;;;10.31;100.00;99124.21;1717295;82;21442;-58
2023/04/13 00:32:56;;;;;;;8.35;4.12;;;;;;;10.30;100.00;99118.43;1730171;81;21094;-57
2023/04/13 00:35:25;;;;;;;5.33;4.10;;;;;;;10.28;100.00;99114.24;1717490;82;21034;-59
2023/04/13 00:37:54;;;;;;;9.58;4.25;;;;;;;10.26;100.00;99104.89;1730235;83;21449;-58
2023/04/13 00:40:26;;;;;;;6.45;3.85;;;;;;;10.27;100.00;99103.83;1717283;83;21099;-58
2023/04/13 00:42:56;;;;;;;8.00;4.00;;;;;;;10.27;100.00;99111.20;1730098;81;21502;-58
2023/04/13 00:45:25;;;;;;;8.85;3.95;;;;;;;10.26;100.00;99114.47;1717417;83;21461;-59
2023/04/13 00:47:57;;;;;;;7.33;4.12;;;;;;;10.27;100.00;99110.67;1730410;81;21946;-58
2023/04/13 00:50:26;;;;;;;7.22;3.83;;;;;;;10.28;100.00;99101.39;1717464;83;21541;-58
2023/04/13 00:52:56;;;;;;;5.90;3.50;;;;;;;10.25;100.00;99095.54;1730835;83;21425;-58
2023/04/13 00:55:27;;;;;;;11.33;3.70;;;;;;;10.22;100.00;99091.36;1719040;83;21010;-58
2023/04/13 00:57:58;;;;;;;9.10;3.90;;;;;;;10.24;100.00;99095.23;1730832;83;20998;-58
2023/04/13 01:00:27;;;;;;;5.10;3.50;;;;;;;10.26;100.00;99102.69;1717532;82;21037;-57
2023/04/13 01:03:00;;;;;;;7.45;4.03;;;;;;;10.26;100.00;99095.31;1701684;83;21021;-58
2023/04/13 01:05:53;;;;;;;5.53;3.25;;;;;;;10.26;100.00;99087.09;1717385;83;21002;-58
2023/04/13 01:08:34;;;;;;;7.65;3.90;;;;;;;10.26;100.00;99085.73;1697077;82;21259;-58
2023/04/13 01:11:06;;;;;;;7.45;3.85;;;;;;;10.25;100.00;99098.27;1730243;81;21033;-60
2023/04/13 01:13:46;;;;;;;8.73;3.70;;;;;;;10.23;100.00;99098.50;1717414;83;21106;-58
2023/04/13 01:16:23;;;;;;;6.85;4.00;;;;;;;10.24;100.00;99096.07;1717023;82;21539;-57
2023/04/13 01:18:52;;;;;;;6.80;3.70;;;;;;;10.24;100.00;99100.17;1729642;81;21068;-58
2023/04/13 01:21:24;;;;;;;7.50;3.85;;;;;;;10.26;100.00;99102.69;1717249;83;21026;-58
2023/04/13 01:24:16;;;;;;;6.65;3.65;;;;;;;10.27;100.00;99096.98;1730253;81;21037;-58
2023/04/13 01:27:12;;;;;;;7.87;3.58;;;;;;;10.23;100.00;99099.03;1717619;83;21472;-59
2023/04/13 01:29:42;;;;;;;6.22;3.77;;;;;;;10.23;100.00;99102.61;1709253;83;20991;-58
2023/04/13 01:32:10;;;;;;;8.83;3.92;;;;;;;10.22;100.00;99091.36;1730413;81;21044;-58
2023/04/13 01:34:39;;;;;;;8.70;3.77;;;;;;;10.21;100.00;99097.89;1717342;83;21010;-58
2023/04/13 01:37:10;;;;;;;8.03;3.87;;;;;;;10.20;100.00;99095.35;1730340;81;21023;-58
2023/04/13 01:39:39;;;;;;;5.75;3.75;;;;;;;10.19;100.00;99087.67;1690735;82;21434;-59
2023/04/13 01:42:11;;;;;;;6.55;4.05;;;;;;;10.18;100.00;99090.94;1729021;81;21033;-58
2023/04/13 01:44:42;;;;;;;8.48;3.45;;;;;;;10.18;100.00;99086.84;1717111;83;21454;-59
2023/04/13 01:47:19;;;;;;;6.87;3.90;;;;;;;10.18;100.00;99089.58;1730228;81;21058;-58
2023/04/13 01:49:59;;;;;;;7.47;4.00;;;;;;;10.17;100.00;99087.90;1716701;82;21458;-58
2023/04/13 01:52:31;;;;;;;6.70;3.80;;;;;;;10.16;100.00;99086.23;1694993;83;21064;-58
2023/04/13 01:55:00;;;;;;;7.85;3.42;;;;;;;10.14;100.00;99089.72;1717365;83;21030;-58
2023/04/13 01:57:31;;;;;;;6.15;3.70;;;;;;;10.17;100.00;99092.54;1730141;83;21447;-58
2023/04/13 02:00:13;;;;;;;6.62;3.95;;;;;;;10.17;100.00;99092.54;1716864;82;21006;-59
2023/04/13 02:02:36;;;;;;;6.45;3.83;;;;;;;10.18;100.00;99094.21;1729412;83;21053;-57
2023/04/13 02:05:09;;;;;;;5.33;3.50;;;;;;;10.18;100.00;99088.20;1717475;82;20982;-56
2023/04/13 02:07:39;;;;;;;7.95;3.47;;;;;;;10.19;100.00;99083.56;1730420;81;21072;-57
2023/04/13 02:10:09;;;;;;;7.05;3.92;;;;;;;10.20;100.00;99081.16;1717260;83;21038;-58
2023/04/13 02:12:40;;;;;;;8.08;3.77;;;;;;;10.21;100.00;99085.58;1730065;81;21068;-58
2023/04/13 02:15:10;;;;;;;9.20;3.75;;;;;;;10.21;100.00;99093.79;1717351;83;21492;-58
2023/04/13 02:17:43;;;;;;;6.70;3.92;;;;;;;10.21;100.00;99099.27;1730245;83;20998;-57
2023/04/13 02:20:12;;;;;;;5.03;3.60;;;;;;;10.22;100.00;99108.31;1717055;83;21014;-59
2023/04/13 02:22:42;;;;;;;6.17;3.58;;;;;;;10.22;100.00;99109.15;1730001;83;21006;-57
2023/04/13 02:25:14;;;;;;;6.28;3.62;;;;;;;10.24;100.00;99106.19;1717402;82;20986;-59
2023/04/13 02:27:44;;;;;;;8.43;3.80;;;;;;;10.22;100.00;99098.20;1730102;81;21116;-58
2023/04/13 02:30:13;;;;;;;12.88;4.00;;;;;;;10.19;100.00;99093.15;1717367;83;20974;-58
2023/04/13 02:32:48;;;;;;;9.20;4.10;;;;;;;10.16;100.00;99095.81;1730132;83;20997;-57
2023/04/13 02:35:16;;;;;;;6.37;3.95;;;;;;;10.17;100.00;99100.75;1717458;82;21112;-58
2023/04/13 02:37:45;;;;;;;8.23;3.98;;;;;;;10.18;100.00;99099.69;1730105;81;21025;-57
2023/04/13 02:40:16;;;;;;;6.47;3.67;;;;;;;10.20;100.00;99090.75;1717339;82;21046;-58
2023/04/13 02:42:47;;;;;;;6.92;3.60;;;;;;;10.19;100.00;99095.88;1730528;81;20990;-57
2023/04/13 02:45:17;;;;;;;7.72;3.95;;;;;;;10.17;100.00;99089.27;1717249;82;21013;-58
2023/04/13 02:47:49;;;;;;;11.10;3.70;;;;;;;10.15;100.00;99090.56;1730120;81;21065;-57
2023/04/13 02:50:22;;;;;;;5.75;3.90;;;;;;;10.11;100.00;99092.91;1717296;83;21042;-58
2023/04/13 02:52:53;;;;;;;6.75;3.70;;;;;;;10.09;100.00;99099.67;1729264;83;21453;-57
2023/04/13 02:55:24;;;;;;;8.48;3.90;;;;;;;10.08;100.00;99099.38;1717375;82;20990;-58
2023/04/13 02:57:56;;;;;;;7.55;4.40;;;;;;;10.08;100.00;99104.84;1728737;81;21030;-58
2023/04/13 03:00:27;;;;;;;6.83;3.77;;;;;;;10.10;100.00;99099.98;1717294;83;20998;-58
2023/04/13 03:03:02;;;;;;;9.53;4.30;;;;;;;10.11;100.00;99097.55;1730176;83;21003;-57
2023/04/13 03:05:32;;;;;;;7.80;4.22;;;;;;;10.11;100.00;99097.55;1717059;83;21073;-58
2023/04/13 03:08:01;;;;;;;6.72;3.80;;;;;;;10.09;100.00;99090.94;1701678;83;21371;-58
2023/04/13 03:10:31;;;;;;;7.00;4.50;;;;;;;10.10;100.00;99091.77;1717360;83;21074;-58
2023/04/13 03:13:01;;;;;;;9.15;4.55;;;;;;;10.11;100.00;99099.75;1730246;81;21452;-57
2023/04/13 03:15:30;;;;;;;7.08;4.22;;;;;;;10.10;100.00;99104.09;1717236;82;21499;-57
2023/04/13 03:18:02;;;;;;;6.85;4.22;;;;;;;10.10;100.00;99108.19;1730108;83;21486;-59
2023/04/13 03:20:31;;;;;;;8.33;4.25;;;;;;;10.10;100.00;99107.66;1717295;83;21029;-58
2023/04/13 03:23:01;;;;;;;7.12;3.87;;;;;;;10.09;100.00;99106.52;1730403;81;21080;-57
2023/04/13 03:25:34;;;;;;;6.58;4.00;;;;;;;10.07;100.00;99105.91;1717306;83;21033;-59
2023/04/13 03:28:05;;;;;;;5.20;3.80;;;;;;;10.05;100.00;99106.13;1730171;82;20985;-58
2023/04/13 03:30:36;;;;;;;6.67;4.53;;;;;;;10.03;100.00;99110.16;1717345;82;20998;-59
2023/04/13 03:33:06;;;;;;;7.28;4.28;;;;;;;10.03;100.00;99111.53;1730260;81;21471;-57
2023/04/13 03:35:37;;;;;;;8.50;4.20;;;;;;;10.04;100.00;99122.25;1717302;82;21042;-59
2023/04/13 03:38:07;;;;;;;5.70;4.20;;;;;;;10.07;100.00;99122.33;1730225;81;21038;-58
2023/04/13 03:40:38;;;;;;;10.80;4.53;;;;;;;10.07;100.00;99130.01;1717533;83;21038;-58
2023/04/13 03:43:10;;;;;;;6.35;4.05;;;;;;;10.07;100.00;99129.17;1730404;83;21518;-58
2023/04/13 03:45:40;;;;;;;8.43;4.50;;;;;;;10.07;100.00;99131.38;1717286;83;21038;-58
2023/04/13 03:48:11;;;;;;;7.85;4.10;;;;;;;10.08;100.00;99130.84;1730167;81;21108;-58
2023/04/13 03:50:40;;;;;;;7.78;4.25;;;;;;;10.07;100.00;99128.64;1717219;82;21493;-57
2023/04/13 03:53:10;;;;;;;6.85;3.65;;;;;;;10.08;100.00;99131.68;1730604;81;21033;-58
2023/04/13 03:55:41;;;;;;;6.62;4.17;;;;;;;10.08;100.00;99130.31;1717233;82;21430;-57
2023/04/13 03:58:10;;;;;;;6.75;4.33;;;;;;;10.09;100.00;99133.35;1730434;83;21052;-58
2023/04/13 04:00:41;;;;;;;8.70;5.25;;;;;;;10.10;100.00;99128.72;1691529;83;21502;-58
2023/04/13 04:03:14;;;;;;;9.30;4.12;;;;;;;10.09;100.00;99125.67;1729945;81;20997;-57
2023/04/13 04:05:45;;;;;;;8.13;4.65;;;;;;;10.09;100.00;99131.98;1715445;82;21089;-58
2023/04/13 04:08:16;;;;;;;8.40;4.58;;;;;;;10.09;100.00;99131.15;1730151;83;21009;-59
2023/04/13 04:10:45;;;;;;;15.70;5.40;;;;;;;10.11;100.00;99131.23;1717597;82;21445;-57
2023/04/13 04:13:15;;;;;;;6.15;4.20;;;;;;;10.13;100.00;99132.37;1730119;83;21449;-58
2023/04/13 04:15:47;;;;;;;7.35;4.67;;;;;;;10.14;100.00;99135.41;1717066;82;21061;-58
2023/04/13 04:18:17;;;;;;;8.48;4.58;;;;;;;10.14;100.00;99144.99;1730267;83;21497;-58
2023/04/13 04:20:46;;;;;;;8.33;4.33;;;;;;;10.15;100.00;99139.83;1717480;82;21433;-58
2023/04/13 04:23:16;;;;;;;6.90;4.47;;;;;;;10.16;100.00;99137.39;1730315;83;21478;-58
2023/04/13 04:25:49;;;;;;;10.85;4.30;;;;;;;10.16;100.00;99151.08;1716641;83;21426;-58
2023/04/13 04:28:18;;;;;;;7.45;4.50;;;;;;;10.17;100.00;99149.48;1730290;81;21456;-58
2023/04/13 04:30:53;;;;;;;7.92;5.00;;;;;;;10.18;100.00;99153.89;1717375;83;21025;-58
2023/04/13 04:33:25;;;;;;;10.45;4.30;;;;;;;10.19;100.00;99162.95;1730416;83;21471;-58
2023/04/13 04:35:51;;;;;;;10.53;4.58;;;;;;;10.19;100.00;99165.68;1701600;83;21041;-58
2023/04/13 04:38:23;;;;;;;7.55;5.10;;;;;;;10.17;100.00;99170.55;1719863;83;21049;-58
2023/04/13 04:40:56;;;;;;;13.10;4.80;;;;;;;10.17;100.00;99166.44;1732432;83;21045;-58
2023/04/13 04:43:29;;;;;;;9.60;5.40;;;;;;;10.18;100.00;99174.95;1718187;83;21009;-57
2023/04/13 04:46:01;;;;;;;8.35;5.33;;;;;;;10.19;100.00;99167.05;1717172;82;21002;-58
2023/04/13 04:48:30;;;;;;;12.25;4.80;;;;;;;10.21;100.00;99167.69;1730113;83;21500;-59
2023/04/13 04:51:02;;;;;;;9.28;4.90;;;;;;;10.22;100.00;99167.16;1717152;82;21488;-58
2023/04/13 04:53:33;;;;;;;10.03;4.78;;;;;;;10.23;100.00;99162.83;1730058;83;21006;-58
2023/04/13 04:56:03;;;;;;;9.08;5.42;;;;;;;10.24;100.00;99154.09;1717195;82;21460;-59
2023/04/13 04:58:44;;;;;;;11.48;5.42;;;;;;;10.24;100.00;99157.66;1729321;82;21021;-59
2023/04/13 05:01:16;;;;;;;9.18;5.10;;;;;;;10.26;100.00;99153.33;1717272;83;21026;-58
2023/04/13 05:03:46;;;;;;;9.13;6.12;;;;;;;10.28;100.00;99140.25;1730180;81;21453;-57
2023/04/13 05:06:23;;;;;;;11.28;6.20;;;;;;;10.28;100.00;99145.19;1716327;82;21030;-59
2023/04/13 05:08:52;;;;;;;10.48;5.17;;;;;;;10.29;100.00;99142.77;1730188;81;21457;-58
2023/04/13 05:11:22;;;;;;;11.45;4.87;;;;;;;10.31;100.00;99152.95;1717378;82;21058;-59
2023/04/13 05:13:54;;;;;;;8.35;4.37;;;;;;;10.33;100.00;99145.88;1730344;81;21465;-59
2023/04/13 05:16:29;;;;;;;11.18;4.50;;;;;;;10.37;100.00;99141.63;1716957;82;21033;-59
2023/04/13 05:18:55;;;;;;;13.72;6.33;;;;;;;10.40;100.00;99145.28;1730268;81;21052;-57
2023/04/13 05:21:44;;;;;;;9.73;4.80;;;;;;;10.39;100.00;99153.19;1608303;89;21528;-58
2023/04/13 05:24:13;;;;;;;9.53;4.80;;;;;;;10.43;100.00;99154.44;1608237;89;21193;-59
2023/04/13 05:26:42;;;;;;;7.55;5.10;;;;;;;10.43;100.00;99152.54;1649408;82;21500;-58
2023/04/13 05:29:12;;;;;;;8.95;4.95;;;;;;;10.46;100.00;99146.61;1730128;81;21397;-58
2023/04/13 05:31:45;;;;;;;9.95;4.90;;;;;;;10.47;100.00;99148.28;1716840;82;21635;-58
2023/04/13 05:34:15;;;;;;;14.07;5.37;;;;;;;10.51;100.00;99156.88;1730102;83;21417;-59
2023/04/13 05:36:46;;;;;;;10.08;4.70;;;;;;;10.56;100.00;99158.94;1716072;83;21025;-59
2023/04/13 05:39:15;;;;;;;9.43;5.05;;;;;;;10.61;100.00;99159.09;1730354;81;21001;-59
2023/04/13 05:41:44;;;;;;;9.53;4.80;;;;;;;10.66;100.00;99155.13;1717271;82;21037;-58
2023/04/13 05:44:16;;;;;;;6.35;4.20;;;;;;;10.68;100.00;99163.42;1730017;83;21006;-58
2023/04/13 05:46:47;;;;;;;7.62;4.60;;;;;;;10.72;100.00;99161.06;1690417;83;21014;-60
2023/04/13 05:49:17;;;;;;;10.72;4.55;;;;;;;10.79;100.00;99156.34;1729675;83;21176;-59
2023/04/13 05:51:47;;;;;;;17.92;5.17;;;;;;;10.86;100.00;99161.20;1717353;83;21014;-61
2023/04/13 05:54:17;;;;;;;10.88;4.78;;;;;;;10.93;100.00;99166.06;1730171;83;21041;-58
2023/04/13 05:56:49;;;;;;;9.60;4.92;;;;;;;10.97;100.00;99161.80;1717008;82;21057;-59
2023/04/13 05:59:19;;;;;;;10.75;4.33;;;;;;;11.00;99.91;99153.11;1730093;83;21029;-59
2023/04/13 06:01:49;;;;;;;9.58;5.22;;;;;;;11.03;99.50;99162.77;1717094;82;21010;-57
2023/04/13 06:04:21;;;;;;;11.50;4.78;;;;;;;11.05;99.07;99153.28;1730066;81;20977;-58
2023/04/13 06:06:50;;;;;;;8.93;4.35;;;;;;;11.11;99.01;99153.73;1717033;83;21025;-58
2023/04/13 06:09:19;;;;;;;6.33;4.42;;;;;;;11.14;98.32;99161.19;1730202;83;21052;-58
2023/04/13 06:11:49;;;;;;;6.40;4.33;;;;;;;11.15;97.63;99168.34;1717409;83;20982;-61
2023/04/13 06:14:22;;;;;;;7.00;4.58;;;;;;;11.14;97.29;99173.52;1730064;81;21202;-59
2023/04/13 06:16:51;;;;;;;10.38;4.20;;;;;;;11.14;96.88;99165.30;1729883;81;21136;-58
2023/04/13 06:19:20;;;;;;;8.15;4.37;;;;;;;11.12;96.58;99173.75;1717200;83;21038;-58
2023/04/13 06:21:50;;;;;;;7.30;4.08;;;;;;;11.10;96.19;99169.87;1730227;83;21479;-58
2023/04/13 06:24:20;;;;;;;8.98;4.83;;;;;;;11.11;95.84;99177.56;1717390;83;21476;-60
2023/04/13 06:26:50;;;;;;;10.13;4.78;;;;;;;11.10;95.79;99176.73;1729781;81;21033;-60
2023/04/13 06:29:22;;;;;;;8.75;4.65;;;;;;;11.13;95.98;99177.33;1717294;83;21085;-59
2023/04/13 06:31:54;;;;;;;9.43;4.30;;;;;;;11.16;95.94;99180.98;1729175;83;21045;-58
2023/04/13 06:34:22;;;;;;;8.88;4.60;;;;;;;11.19;96.32;99175.88;1717544;83;21154;-59
2023/04/13 06:36:51;;;;;;;9.45;5.03;;;;;;;11.21;96.01;99183.33;1730221;81;21065;-59
2023/04/13 06:39:21;;;;;;;12.85;5.10;;;;;;;11.19;95.85;99184.09;1717316;82;21033;-59
2023/04/13 06:41:51;;;;;;;14.05;5.30;;;;;;;11.18;95.34;99196.13;1729473;81;21478;-60
2023/04/13 06:44:23;;;;;;;17.67;5.25;;;;;;;11.17;95.33;99193.09;1717423;83;21033;-59
2023/04/13 06:46:59;;;;;;;7.62;5.15;;;;;;;11.18;95.50;99188.44;1730168;81;21025;-58
2023/04/13 06:49:37;;;;;;;9.40;5.20;;;;;;;11.20;95.43;99198.64;1717193;83;21410;-58
2023/04/13 06:52:04;;;;;;;9.38;5.05;;;;;;;11.15;94.69;99200.70;1717227;82;20990;-60
2023/04/13 06:54:34;;;;;;;11.70;5.58;;;;;;;11.15;94.88;99196.59;1730396;82;21032;-58
2023/04/13 06:57:06;;;;;;;21.87;6.75;;;;;;;11.17;95.04;99205.42;1717604;83;21065;-59
2023/04/13 06:59:35;;;;;;;13.05;5.75;;;;;;;11.21;95.24;99208.00;1730162;82;21418;-59
2023/04/13 07:02:04;;;;;;;12.85;5.20;;;;;;;11.23;95.31;99196.27;1717566;83;21418;-59
2023/04/13 07:04:34;;;;;;;10.15;5.12;;;;;;;11.27;95.31;99198.02;1730184;83;21529;-59
2023/04/13 07:07:04;;;;;;;13.20;5.35;;;;;;;11.28;95.22;99196.41;1691032;83;21469;-59
2023/04/13 07:09:33;;;;;;;12.20;5.28;;;;;;;11.32;94.99;99198.16;1730453;83;21438;-59
2023/04/13 07:12:06;;;;;;;16.90;6.90;;;;;;;11.39;95.32;99185.19;1717289;82;21010;-59
2023/04/13 07:14:39;;;;;;;10.43;5.70;;;;;;;11.42;94.72;99196.53;1730205;83;21025;-59
2023/04/13 07:17:09;;;;;;;11.88;5.10;;;;;;;11.47;94.90;99204.59;1717249;82;21042;-61
2023/04/13 07:19:46;;;;;;;10.25;5.00;;;;;;;11.56;95.24;99201.83;1730350;83;20966;-57
2023/04/13 07:22:16;;;;;;;10.55;5.22;;;;;;;11.60;94.81;99202.50;1717288;82;21014;-60
2023/04/13 07:24:45;;;;;;;9.63;5.25;;;;;;;11.65;94.72;99199.89;1730070;81;21045;-58
2023/04/13 07:27:17;;;;;;;13.60;5.40;;;;;;;11.72;94.37;99198.45;1717508;83;21022;-62
2023/04/13 07:29:50;;;;;;;11.53;5.37;;;;;;;11.81;94.22;99197.61;1730167;83;21483;-61
2023/04/13 07:32:20;;;;;;;9.53;4.28;;;;;;;11.86;93.72;99191.70;1717515;83;21663;-59
2023/04/13 07:34:51;;;;;;;10.93;4.75;;;;;;;11.96;93.50;99191.97;1730049;81;21540;-59
2023/04/13 07:37:20;;;;;;;10.98;4.50;;;;;;;12.05;93.40;99195.20;1717351;82;21438;-60
2023/04/13 07:39:49;;;;;;;13.48;5.37;;;;;;;12.15;92.41;99195.98;1730171;82;21488;-60
2023/04/13 07:42:17;;;;;;;13.03;4.87;;;;;;;12.19;91.73;99200.77;1717624;82;21517;-59
2023/04/13 07:44:48;;;;;;;9.83;5.28;;;;;;;12.28;91.16;99202.63;1729921;81;21441;-58
2023/04/13 07:47:18;;;;;;;8.45;4.85;;;;;;;12.36;90.35;99203.13;1717332;82;21033;-59
2023/04/13 07:49:47;;;;;;;9.78;5.10;;;;;;;12.45;89.75;99207.73;1730151;81;21029;-58
2023/04/13 07:52:20;;;;;;;14.68;5.20;;;;;;;12.50;89.16;99215.26;1717214;82;21065;-59
2023/04/13 07:54:50;;;;;;;9.05;5.25;;;;;;;12.54;88.74;99217.82;1693998;83;21840;-59
2023/04/13 07:57:21;;;;;;;10.25;5.50;;;;;;;12.58;88.68;99220.39;1757643;80;21562;-60
2023/04/13 07:59:51;;;;;;;14.83;6.03;;;;;;;12.60;87.55;99222.36;1759099;81;21740;-60
2023/04/13 08:02:22;;;;;;;13.13;5.25;;;;;;;12.61;87.75;99226.78;1746786;82;21481;-59
2023/04/13 08:04:53;;;;;;;11.08;5.33;;;;;;;12.65;87.92;99225.22;1759970;81;21018;-61
2023/04/13 08:07:28;;;;;;;13.13;5.62;;;;;;;12.68;88.09;99226.12;1747080;82;21052;-62
2023/04/13 08:09:57;;;;;;;11.18;5.40;;;;;;;12.70;87.99;99228.92;1747724;82;21039;-60
2023/04/13 08:12:25;;;;;;;8.30;4.90;;;;;;;12.70;88.10;99221.22;1747717;82;21097;-59
2023/04/13 08:14:56;;;;;;;10.93;5.42;;;;;;;12.73;88.11;99224.86;1661979;85;21493;-58
2023/04/13 08:17:25;;;;;;;7.58;4.90;;;;;;;12.74;87.70;99230.66;1685071;84;21075;-60
2023/04/13 08:19:54;;;;;;;9.05;4.50;;;;;;;12.72;87.01;99229.22;1649337;86;21046;-58
2023/04/13 08:22:25;;;;;;;12.28;5.50;;;;;;;12.69;86.60;99231.91;1640742;87;21229;-59
2023/04/13 08:24:55;;;;;;;13.25;4.85;;;;;;;12.64;85.76;99231.80;1658309;85;21059;-61
2023/04/13 08:27:24;;;;;;;12.75;5.17;;;;;;;12.64;86.32;99235.38;1642108;87;21127;-59
2023/04/13 08:29:59;;;;;;;11.48;5.50;;;;;;;12.68;86.24;99238.48;1632295;86;21097;-60
2023/04/13 08:32:27;;;;;;;8.78;5.15;;;;;;;12.71;86.21;99231.13;1653095;85;21254;-60
2023/04/13 08:34:57;;;;;;;7.65;4.87;;;;;;;12.75;86.48;99236.45;1682815;85;20999;-60
2023/04/13 08:37:27;;;;;;;12.03;5.30;;;;;;;12.77;86.13;99229.34;1693024;85;21015;-59
2023/04/13 08:39:59;;;;;;;15.78;6.08;;;;;;;12.78;85.90;99229.63;1683097;84;21016;-59
2023/04/13 08:42:28;;;;;;;11.60;5.97;;;;;;;12.82;85.97;99233.57;1692598;83;21414;-60
2023/04/13 08:44:58;;;;;;;12.30;5.97;;;;;;;12.85;85.36;99237.21;1663857;85;21527;-60
2023/04/13 08:47:28;;;;;;;14.70;5.80;;;;;;;12.89;85.00;99239.23;1692694;84;21020;-58
2023/04/13 08:49:59;;;;;;;9.35;5.15;;;;;;;12.94;84.93;99233.84;1683076;85;21066;-58
2023/04/13 08:52:45;;;;;;;8.70;4.83;;;;;;;12.99;85.00;99234.50;1692514;84;21082;-59
2023/04/13 08:55:17;;;;;;;14.25;5.15;;;;;;;13.06;84.40;99227.52;1686218;85;21443;-61
2023/04/13 08:57:49;;;;;;;10.53;5.20;;;;;;;13.08;83.75;99235.00;1692744;85;21031;-59
2023/04/13 09:00:22;;;;;;;12.60;6.08;;;;;;;13.11;83.35;99237.26;1670919;85;21111;-61
2023/04/13 09:02:59;;;;;;;9.68;4.92;;;;;;;13.13;83.12;99228.23;1671419;85;21054;-61
2023/04/13 09:05:29;;;;;;;;;;;;;;;13.13;82.77;99239.22;1695103;84;21471;-59
2023/04/13 09:08:03;;;;;;;10.58;5.08;;;;;;;13.14;83.31;99234.86;1710276;84;20544;-61
2023/04/13 09:10:33;;;;;;;9.78;4.90;;;;;;;13.17;82.96;99230.81;1692603;85;20995;-61
2023/04/13 09:13:03;;;;;;;7.92;4.65;;;;;;;13.20;82.56;99234.45;1692747;85;21078;-59
2023/04/13 09:15:33;;;;;;;9.68;4.30;;;;;;;13.21;82.58;99236.96;1682879;85;20999;-61
2023/04/13 09:18:08;;;;;;;12.37;5.08;;;;;;;13.27;82.21;99236.53;1691746;84;21470;-59
2023/04/13 09:21:02;;;;;;;11.18;4.90;;;;;;;13.29;81.60;99240.70;1648035;87;21552;-58
2023/04/13 09:23:31;;;;;;;8.93;4.90;;;;;;;13.30;81.02;99234.66;1650192;87;21048;-61
2023/04/13 09:26:07;;;;;;;10.70;4.53;;;;;;;13.34;80.72;99239.97;1650106;87;21866;-60
2023/04/13 09:28:51;;;;;;;10.30;4.83;;;;;;;13.38;80.35;99239.78;1596274;90;21215;-59
2023/04/13 09:31:17;;;;;;;7.97;3.95;;;;;;;13.41;78.60;99243.42;1583091;90;21069;-59
2023/04/13 09:33:49;;;;;;;9.43;4.28;;;;;;;13.39;78.21;99244.20;1583285;90;21537;-60
2023/04/13 09:36:21;;;;;;;13.88;5.08;;;;;;;13.38;77.97;99237.03;1583270;90;21052;-60
2023/04/13 09:38:54;;;;;;;8.93;4.40;;;;;;;13.39;78.15;99244.74;1583609;90;21124;-59
2023/04/13 09:41:36;;;;;;;11.50;4.47;;;;;;;13.43;78.32;99242.63;1583295;90;21039;-59
2023/04/13 09:44:19;;;;;;;10.48;4.67;;;;;;;13.49;78.58;99247.16;1548000;90;21040;-57
2023/04/13 09:47:01;;;;;;;8.38;4.60;;;;;;;13.57;78.34;99245.94;1609035;88;21040;-58
2023/04/13 09:49:41;;;;;;;8.83;4.00;;;;;;;13.66;78.17;99247.78;1635079;88;21041;-59
2023/04/13 09:52:23;;;;;;;9.45;4.28;;;;;;;13.71;76.46;99243.75;1660117;85;21064;-58
2023/04/13 09:54:56;;;;;;;7.85;3.65;;;;;;;13.73;74.76;99242.97;1680006;83;21075;-59
2023/04/13 09:57:29;;;;;;;9.38;3.72;;;;;;;13.72;74.87;99244.05;1728640;81;21074;-59
2023/04/13 10:00:00;;;;;;;10.95;4.08;;;;;;;13.74;75.43;99245.47;1728705;83;21051;-58
2023/04/13 10:02:33;;;;;;;10.82;3.70;;;;;;;13.74;74.21;99262.53;1740825;81;21462;-58
2023/04/13 10:05:02;;;;;;;7.37;4.00;;;;;;;13.73;74.59;99256.19;1764710;81;21422;-59
2023/04/13 10:07:35;;;;;;;9.28;3.50;;;;;;;13.74;74.92;99254.27;1764737;81;21577;-58
2023/04/13 10:10:04;;;;;;;10.08;4.00;;;;;;;13.71;74.54;99247.88;1764831;81;21110;-59
2023/04/13 10:12:35;;;;;;;9.58;4.20;;;;;;;13.68;74.64;99255.25;1764678;81;21016;-57
2023/04/13 10:15:44;;;;;;;10.03;3.67;;;;;;;13.68;74.73;99259.38;1764786;81;21102;-62
2023/04/13 10:18:49;;;;;;;7.28;3.55;;;;;;;13.69;75.54;99260.52;1749654;81;21483;-61
2023/04/13 10:21:18;;;;;;;8.10;3.60;;;;;;;13.69;75.64;99258.30;1754802;81;21028;-59
2023/04/13 10:23:47;;;;;;;7.47;4.00;;;;;;;13.64;75.29;99258.47;1766817;81;21068;-59
2023/04/13 10:26:16;;;;;;;16.10;4.95;;;;;;;13.62;75.36;99262.55;1766430;81;21024;-61
2023/04/13 10:28:46;;;;;;;7.53;3.47;;;;;;;13.60;75.04;99261.95;1766522;81;21064;-59
2023/04/13 10:31:17;;;;;;;9.18;3.80;;;;;;;13.58;75.10;99271.00;1766658;81;21055;-60
2023/04/13 10:33:52;;;;;;;9.15;3.65;;;;;;;13.52;74.70;99272.81;1766675;81;21043;-60
2023/04/13 10:36:21;;;;;;;7.58;3.52;;;;;;;13.46;74.48;99270.20;1766816;81;21494;-60
2023/04/13 10:38:51;;;;;;;9.68;3.77;;;;;;;13.40;74.86;99274.77;1766531;81;21056;-57
2023/04/13 10:41:24;;;;;;;6.85;3.30;;;;;;;13.38;75.30;99270.59;1766815;81;21655;-58
2023/04/13 10:44:07;;;;;;;6.37;4.15;;;;;;;13.37;75.38;99275.25;1766481;81;21024;-59
2023/04/13 10:46:36;;;;;;;15.38;4.10;;;;;;;13.32;75.58;99279.27;1766671;81;21044;-59
2023/04/13 10:49:05;;;;;;;8.10;3.50;;;;;;;13.27;75.69;99275.88;1766588;81;21039;-60
2023/04/13 10:51:42;;;;;;;9.80;3.55;;;;;;;13.25;75.43;99284.08;1766728;81;21521;-60
2023/04/13 10:54:12;;;;;;;8.63;3.77;;;;;;;13.21;75.46;99278.77;1766718;81;21055;-62
2023/04/13 10:56:41;;;;;;;8.23;3.58;;;;;;;13.16;75.91;99282.20;1740038;81;21070;-61
2023/04/13 10:59:10;;;;;;;7.55;3.30;;;;;;;13.15;76.04;99289.33;1735841;81;21510;-60
2023/04/13 11:01:39;;;;;;;10.40;3.52;;;;;;;13.13;76.26;99288.73;1735900;81;21098;-60
2023/04/13 11:04:09;;;;;;;8.93;3.72;;;;;;;13.12;76.36;99296.14;1711744;84;21023;-58
2023/04/13 11:06:41;;;;;;;5.20;3.20;;;;;;;13.10;76.23;99288.67;1711094;83;21076;-59
2023/04/13 11:09:11;;;;;;;8.58;3.22;;;;;;;13.10;76.05;99297.46;1711776;84;21562;-61
2023/04/13 11:11:41;;;;;;;8.25;3.33;;;;;;;13.10;75.99;99297.46;1679926;85;21455;-60
2023/04/13 11:14:21;;;;;;;9.65;3.55;;;;;;;13.11;76.07;99302.72;1614932;87;21565;-59
2023/04/13 11:16:53;;;;;;;11.00;4.10;;;;;;;13.09;75.78;99304.04;1661600;86;21511;-59
2023/04/13 11:19:24;;;;;;;11.12;3.92;;;;;;;13.08;76.16;99305.95;1662111;86;21050;-59
2023/04/13 11:21:58;;;;;;;7.40;3.83;;;;;;;13.08;76.25;99299.61;1627917;87;21072;-58
2023/04/13 11:24:27;;;;;;;7.85;3.85;;;;;;;13.08;76.16;99307.87;1623153;87;21071;-60
2023/04/13 11:26:56;;;;;;;8.65;3.22;;;;;;;13.06;76.25;99304.52;1605145;89;21223;-60
2023/04/13 11:29:26;;;;;;;7.10;3.75;;;;;;;13.05;76.19;99302.31;1604832;89;21589;-60
2023/04/13 11:31:55;;;;;;;8.35;3.75;;;;;;;13.04;75.29;99306.67;1604813;89;21110;-61
2023/04/13 11:34:25;;;;;;;9.75;4.10;;;;;;;13.01;75.44;99312.95;1604819;89;21549;-60
2023/04/13 11:37:05;;;;;;;7.58;3.42;;;;;;;12.99;75.32;99308.73;1604841;89;21075;-61
2023/04/13 11:39:35;;;;;;;7.97;3.35;;;;;;;12.97;74.86;99309.52;1653557;86;21713;-59
2023/04/13 11:42:07;;;;;;;6.15;3.77;;;;;;;12.93;74.55;99304.20;1684866;85;21030;-58
2023/04/13 11:44:37;;;;;;;6.75;3.70;;;;;;;12.88;73.97;99306.30;1680135;85;21070;-58
2023/04/13 11:47:07;;;;;;;7.47;3.47;;;;;;;12.87;74.14;99310.66;1649329;87;21503;-59